Time;durP1;ratioP1;P1;durP2;ratioP2;P2;SDS_P1;SDS_P2;PMS_P1;PMS_P2;Temp;Humidity;BMP_temperature;BMP_pressure;BME280_temperature;BME280_humidity;BME280_pressure;Samples;Min_cycle;Max_cycle;Signal;HPM_P1;HPM_P2
2022/09/17 00:02:55;;;;;;;4.13;1.87;;;12.80;91.80;;;;;;20664937;28;20762;-71
2022/09/17 00:12:57;;;;;;;3.63;1.70;;;12.80;91.80;;;;;;20665907;28;20216;-72
2022/09/17 00:22:59;;;;;;;5.93;2.53;;;12.70;91.70;;;;;;20666420;28;20239;-71
2022/09/17 00:33:00;;;;;;;3.77;1.77;;;12.70;91.80;;;;;;20665526;28;20670;-71
2022/09/17 00:43:03;;;;;;;3.40;1.67;;;12.70;91.70;;;;;;20665353;28;20242;-72
2022/09/17 00:53:18;;;;;;;3.70;1.90;;;12.70;91.80;;;;;;20676129;28;20214;-71
2022/09/17 01:03:20;;;;;;;3.23;1.70;;;12.50;91.80;;;;;;20662236;28;20239;-71
2022/09/17 01:13:55;;;;;;;3.90;2.00;;;12.40;92.20;;;;;;20678649;28;20289;-70
2022/09/17 01:24:40;;;;;;;4.80;1.73;;;12.40;92.40;;;;;;20678420;28;20282;-72
2022/09/17 01:35:18;;;;;;;2.83;1.70;;;12.50;92.40;;;;;;20677281;28;20644;-72
2022/09/17 01:45:31;;;;;;;3.57;1.80;;;12.50;92.30;;;;;;20676482;28;20219;-72
2022/09/17 01:55:36;;;;;;;2.83;1.87;;;12.60;92.20;;;;;;20673473;28;20239;-72
2022/09/17 02:05:55;;;;;;;2.57;1.57;;;12.70;92.20;;;;;;20672990;28;20209;-72
2022/09/17 02:16:04;;;;;;;6.03;2.00;;;12.60;92.10;;;;;;20674159;28;20243;-71
2022/09/17 02:26:10;;;;;;;8.07;1.70;;;12.70;92.00;;;;;;20673809;28;20206;-70
2022/09/17 02:36:12;;;;;;;3.20;1.47;;;12.60;92.00;;;;;;20672309;28;20242;-71
2022/09/17 02:46:49;;;;;;;4.00;1.60;;;12.60;92.00;;;;;;20671549;28;20553;-70
2022/09/17 02:57:02;;;;;;;5.27;1.70;;;12.50;91.90;;;;;;20671250;28;20320;-70
2022/09/17 03:07:07;;;;;;;5.10;2.43;;;12.40;92.00;;;;;;20670107;28;20205;-72
2022/09/17 03:17:10;;;;;;;7.33;2.30;;;12.50;92.10;;;;;;20668588;28;20245;-72
2022/09/17 03:27:12;;;;;;;3.50;1.37;;;12.60;92.10;;;;;;20668822;28;20284;-72
2022/09/17 03:37:14;;;;;;;7.57;2.00;;;12.60;92.10;;;;;;20668398;28;20267;-71
2022/09/17 03:47:16;;;;;;;6.53;2.33;;;12.60;92.20;;;;;;20667486;28;20289;-73
2022/09/17 03:57:17;;;;;;;7.77;2.20;;;12.50;92.30;;;;;;20664877;28;20239;-72
2022/09/17 04:07:19;;;;;;;7.37;2.10;;;12.50;92.90;;;;;;20664345;28;20212;-72
2022/09/17 04:17:21;;;;;;;5.70;1.90;;;12.40;93.50;;;;;;20665708;28;20783;-72
2022/09/17 04:27:23;;;;;;;10.30;2.30;;;12.30;93.90;;;;;;20676220;28;20623;-72
2022/09/17 04:37:24;;;;;;;6.27;2.80;;;12.20;94.60;;;;;;20681777;28;20238;-71
2022/09/17 04:47:26;;;;;;;8.93;2.00;;;12.10;95.00;;;;;;20680631;28;20211;-71
2022/09/17 04:57:27;;;;;;;4.87;1.87;;;12.20;95.30;;;;;;20679931;28;20696;-72
2022/09/17 05:07:29;;;;;;;8.43;1.87;;;12.10;95.50;;;;;;20679627;28;20663;-73
2022/09/17 05:17:31;;;;;;;4.73;1.93;;;12.00;95.70;;;;;;20678551;28;20249;-73
2022/09/17 05:27:32;;;;;;;4.53;1.80;;;12.00;95.90;;;;;;20677796;28;20660;-72
2022/09/17 05:37:35;;;;;;;3.70;2.00;;;12.00;96.20;;;;;;20677161;28;20229;-73
2022/09/17 05:47:36;;;;;;;5.27;1.80;;;12.00;96.20;;;;;;20676360;28;20211;-72
2022/09/17 05:57:38;;;;;;;3.57;2.00;;;11.90;96.50;;;;;;20672508;28;20235;-73
2022/09/17 06:07:40;;;;;;;2.87;1.73;;;12.00;96.80;;;;;;20672526;28;20209;-73
2022/09/17 06:17:42;;;;;;;2.93;1.97;;;11.90;97.00;;;;;;20673137;28;20253;-75
2022/09/17 06:27:43;;;;;;;3.53;1.63;;;12.00;97.00;;;;;;20672873;28;20198;-72
2022/09/17 06:37:45;;;;;;;5.43;1.63;;;12.00;97.00;;;;;;20672521;28;20234;-70
2022/09/17 06:47:47;;;;;;;3.60;1.90;;;12.10;97.20;;;;;;20670575;28;20213;-78
2022/09/17 06:57:48;;;;;;;4.73;2.07;;;12.10;97.30;;;;;;20671555;28;20293;-77
2022/09/17 07:07:51;;;;;;;7.80;2.13;;;12.20;97.40;;;;;;20670454;28;20275;-78
2022/09/17 07:17:52;;;;;;;7.50;2.00;;;12.20;97.30;;;;;;20667750;28;20247;-78
2022/09/17 07:27:55;;;;;;;7.00;2.40;;;12.30;97.20;;;;;;20669429;28;20734;-75
2022/09/17 07:37:57;;;;;;;4.37;2.03;;;12.40;97.40;;;;;;20670447;28;20233;-79
2022/09/17 07:47:58;;;;;;;5.47;2.23;;;12.70;97.30;;;;;;20668531;28;20733;-81
2022/09/17 07:58:00;;;;;;;7.03;2.20;;;12.70;97.00;;;;;;20667558;28;20241;-78
2022/09/17 08:08:02;;;;;;;11.27;2.47;;;12.90;97.20;;;;;;20666855;28;20783;-77
2022/09/17 08:18:04;;;;;;;8.30;2.40;;;13.20;96.70;;;;;;20666696;28;20237;-78
2022/09/17 08:28:06;;;;;;;8.40;2.13;;;13.30;96.00;;;;;;20666225;28;20211;-77
2022/09/17 08:38:07;;;;;;;8.03;2.70;;;13.30;95.80;;;;;;20665661;28;20333;-74
2022/09/17 08:48:11;;;;;;;8.40;2.67;;;13.50;96.00;;;;;;20662402;28;20206;-72
2022/09/17 08:58:28;;;;;;;6.50;2.60;;;13.70;95.60;;;;;;20663771;28;20292;-71
2022/09/17 09:08:37;;;;;;;11.07;3.40;;;14.00;95.30;;;;;;20666333;28;20217;-72
2022/09/17 09:18:41;;;;;;;8.17;3.43;;;14.00;94.30;;;;;;20678202;28;20244;-74
2022/09/17 09:29:01;;;;;;;6.90;3.10;;;14.30;93.30;;;;;;20677705;28;20637;-76
2022/09/17 09:39:22;;;;;;;6.87;3.20;;;14.30;91.60;;;;;;20676077;28;20233;-72
2022/09/17 09:49:36;;;;;;;10.50;3.17;;;14.20;91.50;;;;;;20593575;28;20660;-71
2022/09/17 09:59:40;;;;;;;7.57;2.80;;;14.20;90.80;;;;;;20594666;28;20234;-70
2022/09/17 10:09:45;;;;;;;10.77;2.60;;;14.20;90.40;;;;;;20594886;28;20211;-77
2022/09/17 10:20:13;;;;;;;5.23;1.80;;;14.40;90.10;;;;;;20592779;28;20300;-77
2022/09/17 10:30:23;;;;;;;5.50;2.03;;;14.30;89.40;;;;;;20598482;28;20205;-76
2022/09/17 10:40:27;;;;;;;11.93;2.60;;;14.20;89.90;;;;;;20669054;28;20239;-76
2022/09/17 10:50:31;;;;;;;3.70;1.93;;;14.50;90.50;;;;;;20671328;28;20240;-76
2022/09/17 11:00:56;;;;;;;5.70;2.23;;;14.90;90.40;;;;;;20670414;28;20289;-76
2022/09/17 11:11:09;;;;;;;4.80;2.40;;;15.10;89.00;;;;;;20670066;28;20215;-76
2022/09/17 11:21:39;;;;;;;8.20;3.20;;;14.80;87.70;;;;;;20669275;28;20268;-76
2022/09/17 11:32:04;;;;;;;6.90;2.93;;;14.80;86.30;;;;;;20667988;28;20286;-77
2022/09/17 11:42:20;;;;;;;9.77;4.00;;;15.20;85.50;;;;;;20667911;28;20243;-76
2022/09/17 11:52:37;;;;;;;4.70;2.27;;;15.50;82.50;;;;;;20667841;28;20268;-76
2022/09/17 12:03:17;;;;;;;4.87;2.00;;;15.50;80.70;;;;;;20666579;28;20246;-75
2022/09/17 12:13:40;;;;;;;5.00;2.30;;;15.20;79.40;;;;;;20649428;28;20240;-76
2022/09/17 12:23:58;;;;;;;6.73;2.40;;;14.80;82.60;;;;;;20666344;28;20295;-75
2022/09/17 12:34:27;;;;;;;4.07;2.60;;;14.50;84.00;;;;;;20663358;28;20210;-76
2022/09/17 12:45:11;;;;;;;6.33;2.67;;;14.70;83.50;;;;;;20667322;28;20289;-77
2022/09/17 12:55:23;;;;;;;5.87;2.30;;;14.90;76.10;;;;;;20680992;28;20221;-77
2022/09/17 13:05:45;;;;;;;4.77;1.80;;;15.00;72.90;;;;;;20680180;28;20214;-74
2022/09/17 13:15:56;;;;;;;6.67;1.83;;;15.20;73.20;;;;;;20678903;28;20288;-75
2022/09/17 13:25:59;;;;;;;6.63;1.87;;;15.50;74.00;;;;;;20678252;28;20220;-76
2022/09/17 13:36:02;;;;;;;3.17;1.80;;;15.50;72.30;;;;;;20677763;28;20225;-76
2022/09/17 13:46:09;;;;;;;2.50;1.23;;;15.70;70.90;;;;;;20676855;28;20215;-77
2022/09/17 13:56:35;;;;;;;5.17;1.50;;;15.30;72.10;;;;;;20676163;28;20308;-77
2022/09/17 14:06:37;;;;;;;4.40;1.37;;;15.40;74.60;;;;;;20658364;28;20206;-77
2022/09/17 14:16:41;;;;;;;2.23;1.30;;;15.50;73.80;;;;;;20674070;28;20302;-76
2022/09/17 14:27:08;;;;;;;6.57;1.97;;;16.20;71.30;;;;;;20673676;28;20209;-79
2022/09/17 14:37:16;;;;;;;5.63;1.50;;;16.70;69.30;;;;;;20669945;28;20237;-74
2022/09/17 14:47:20;;;;;;;2.40;1.40;;;16.80;68.00;;;;;;20670732;28;20200;-77
2022/09/17 14:57:27;;;;;;;4.67;1.80;;;16.40;68.70;;;;;;20671226;28;20232;-77
2022/09/17 15:07:29;;;;;;;7.77;4.03;;;16.30;68.90;;;;;;20670181;28;20267;-76
2022/09/17 15:17:32;;;;;;;4.90;1.40;;;16.10;69.90;;;;;;20669457;28;20256;-77
2022/09/17 15:27:45;;;;;;;3.10;1.10;;;15.90;69.00;;;;;;20669130;28;20212;-75
2022/09/17 15:37:52;;;;;;;4.77;2.00;;;15.90;67.40;;;;;;20668717;28;20644;-77
2022/09/17 15:48:38;;;;;;;3.53;1.10;;;15.70;65.70;;;;;;20667875;28;20205;-77
2022/09/17 15:58:39;;;;;;;2.17;0.90;;;14.80;74.60;;;;;;20666374;28;20234;-77
2022/09/17 16:08:41;;;;;;;1.73;0.90;;;13.30;83.10;;;;;;20649108;28;20282;-77
2022/09/17 16:18:43;;;;;;;0.63;0.63;;;13.00;86.40;;;;;;20668521;28;20304;-78
2022/09/17 16:28:47;;;;;;;2.13;1.00;;;13.30;87.30;;;;;;20682489;28;20213;-76
2022/09/17 16:38:49;;;;;;;8.53;4.90;;;13.40;86.70;;;;;;20679433;28;20239;-77
2022/09/17 16:48:51;;;;;;;3.33;1.00;;;13.40;86.50;;;;;;20680157;28;20266;-76
2022/09/17 16:58:54;;;;;;;4.73;0.80;;;13.60;86.80;;;;;;20680219;28;20892;-77
2022/09/17 17:08:59;;;;;;;5.13;1.00;;;13.60;87.90;;;;;;20679445;28;20561;-76
2022/09/17 17:19:01;;;;;;;6.17;0.97;;;13.50;86.90;;;;;;20677964;28;20247;-78
2022/09/17 17:29:03;;;;;;;3.37;1.30;;;13.40;87.20;;;;;;20676968;28;20283;-76
2022/09/17 17:39:04;;;;;;;3.47;1.37;;;13.40;87.90;;;;;;20677016;28;20295;-77
2022/09/17 17:49:06;;;;;;;2.47;1.40;;;13.50;87.90;;;;;;20676691;28;20214;-75
2022/09/17 17:59:08;;;;;;;4.30;1.23;;;13.50;89.00;;;;;;20675756;28;20230;-75
2022/09/17 18:09:10;;;;;;;2.03;1.20;;;13.40;89.50;;;;;;20675655;28;20255;-78
2022/09/17 18:19:12;;;;;;;1.63;1.10;;;13.40;89.80;;;;;;20674193;28;20705;-77
2022/09/17 18:29:13;;;;;;;2.40;1.13;;;13.30;89.90;;;;;;20673677;28;20206;-76
2022/09/17 18:39:15;;;;;;;1.70;1.10;;;13.20;89.60;;;;;;20670044;28;20238;-76
2022/09/17 18:49:37;;;;;;;2.70;1.00;;;13.10;89.10;;;;;;20670491;28;20244;-78
2022/09/17 18:59:39;;;;;;;2.40;0.70;;;13.10;87.10;;;;;;20671032;28;20233;-77
2022/09/17 19:09:40;;;;;;;1.17;0.70;;;13.10;87.50;;;;;;20670470;28;20694;-78
2022/09/17 19:19:42;;;;;;;2.13;0.90;;;13.00;86.90;;;;;;20669679;28;20241;-76
2022/09/17 19:29:44;;;;;;;3.93;0.90;;;12.90;86.80;;;;;;20669156;28;20359;-78
2022/09/17 19:39:45;;;;;;;2.57;1.10;;;12.90;87.00;;;;;;20668542;28;20308;-78
2022/09/17 19:49:50;;;;;;;1.50;1.00;;;12.60;87.00;;;;;;20668183;28;20214;-77
2022/09/17 19:59:52;;;;;;;2.73;0.90;;;12.60;87.70;;;;;;20667230;28;20701;-78
2022/09/17 20:09:54;;;;;;;4.90;1.20;;;12.40;87.70;;;;;;20667016;28;20212;-77
2022/09/17 20:19:56;;;;;;;2.50;1.10;;;12.40;88.30;;;;;;20666806;28;20252;-77
2022/09/17 20:29:57;;;;;;;2.07;0.90;;;12.40;88.60;;;;;;20665922;28;20653;-76
2022/09/17 20:39:59;;;;;;;2.43;1.00;;;12.40;88.00;;;;;;20661922;28;20700;-73
2022/09/17 20:50:01;;;;;;;4.47;1.10;;;12.40;88.80;;;;;;20664229;28;20209;-76
2022/09/17 21:00:16;;;;;;;2.07;0.97;;;12.50;89.00;;;;;;20665061;28;20245;-77
2022/09/17 21:10:18;;;;;;;4.00;1.30;;;12.40;89.00;;;;;;20675750;28;20207;-76
2022/09/17 21:20:19;;;;;;;3.70;1.00;;;12.40;89.60;;;;;;20679031;28;20335;-77
2022/09/17 21:30:22;;;;;;;4.33;1.20;;;12.30;90.10;;;;;;20678341;28;20270;-75
2022/09/17 21:40:23;;;;;;;2.63;1.07;;;12.30;90.40;;;;;;20677410;28;20239;-72
2022/09/17 21:50:25;;;;;;;4.97;1.27;;;12.30;90.60;;;;;;20677154;28;20312;-72
2022/09/17 22:00:28;;;;;;;4.57;1.50;;;12.20;90.80;;;;;;20676046;28;20245;-72
2022/09/17 22:10:29;;;;;;;5.87;1.40;;;12.20;91.00;;;;;;20675529;28;20613;-71
2022/09/17 22:20:31;;;;;;;4.47;1.20;;;12.10;91.20;;;;;;20674732;28;20249;-76
2022/09/17 22:30:34;;;;;;;3.47;1.23;;;12.10;91.00;;;;;;20674059;28;20207;-76
2022/09/17 22:40:36;;;;;;;5.23;1.50;;;12.10;91.30;;;;;;20669446;28;20239;-72
2022/09/17 22:50:38;;;;;;;7.10;1.33;;;12.20;91.10;;;;;;20670440;28;20238;-72
2022/09/17 23:00:39;;;;;;;8.53;1.27;;;12.20;91.30;;;;;;20671316;28;20948;-72
2022/09/17 23:10:42;;;;;;;3.37;1.30;;;12.30;91.60;;;;;;20670520;28;20743;-72
2022/09/17 23:20:52;;;;;;;5.20;1.40;;;12.30;91.60;;;;;;20669669;28;20247;-71
2022/09/17 23:30:54;;;;;;;6.30;1.27;;;12.30;91.80;;;;;;20668942;28;20682;-72
2022/09/17 23:41:09;;;;;;;5.57;1.83;;;12.40;92.10;;;;;;20668515;28;20234;-72
2022/09/17 23:51:12;;;;;;;3.30;1.40;;;12.50;92.10;;;;;;20668399;28;20210;-72
